createdAt,value
2018-12-15T00:02:12.591Z,-1.17
2018-12-15T00:05:20.204Z,-1.28
2018-12-15T00:08:26.075Z,-1.27
2018-12-15T00:11:32.018Z,-0.88
2018-12-15T00:14:38.467Z,-0.95
2018-12-15T00:17:44.376Z,-1.08
2018-12-15T00:20:50.292Z,-0.73
2018-12-15T00:23:56.149Z,-1.23
2018-12-15T00:27:01.787Z,-1.14
2018-12-15T00:30:08.263Z,-0.83
2018-12-15T00:33:13.868Z,-0.78
2018-12-15T00:36:20.334Z,-0.88
2018-12-15T00:39:26.207Z,-1.05
2018-12-15T00:42:35.092Z,-1.17
2018-12-15T00:45:41.028Z,-0.98
2018-12-15T00:48:46.784Z,-1.31
2018-12-15T00:51:52.383Z,-0.98
2018-12-15T00:54:58.292Z,-1.31
2018-12-15T00:58:04.176Z,-1.22
2018-12-15T01:01:10.289Z,-1.18
2018-12-15T01:04:16.613Z,-1.15
2018-12-15T01:07:22.796Z,-0.90
2018-12-15T01:10:28.685Z,-0.97
2018-12-15T01:13:34.606Z,-1.03
2018-12-15T01:16:40.231Z,-1.14
2018-12-15T01:19:46.151Z,-1.08
2018-12-15T01:22:51.731Z,-1.02
2018-12-15T01:25:57.669Z,-0.89
2018-12-15T01:29:03.820Z,-1.08
2018-12-15T01:32:09.746Z,-0.96
2018-12-15T01:35:15.629Z,-1.06
2018-12-15T01:38:21.536Z,-1.12
2018-12-15T01:41:27.398Z,-1.31
2018-12-15T01:44:33.044Z,-1.02
2018-12-15T01:47:39.192Z,-1.09
2018-12-15T01:50:45.564Z,-1.18
2018-12-15T01:53:51.461Z,-1.17
2018-12-15T01:56:57.097Z,-1.10
2018-12-15T02:00:02.821Z,-1.13
2018-12-15T02:03:10.009Z,-1.00
2018-12-15T02:06:15.897Z,-1.12
2018-12-15T02:09:22.099Z,-1.18
2018-12-15T02:12:28.456Z,-1.05
2018-12-15T02:15:39.383Z,-1.16
2018-12-15T02:18:47.152Z,-1.14
2018-12-15T02:21:54.460Z,-1.19
2018-12-15T02:25:01.821Z,-1.05
2018-12-15T02:28:07.491Z,-0.99
2018-12-15T02:31:13.098Z,-1.13
2018-12-15T02:34:19.879Z,-1.13
2018-12-15T02:37:25.767Z,-1.11
2018-12-15T02:40:31.496Z,-1.12
2018-12-15T02:43:37.106Z,-1.22
2018-12-15T02:46:42.755Z,-1.21
2018-12-15T02:49:48.361Z,-1.19
2018-12-15T02:52:53.990Z,-1.09
2018-12-15T02:55:59.977Z,-1.22
2018-12-15T02:59:06.049Z,-1.22
2018-12-15T03:02:11.978Z,-1.20
2018-12-15T03:05:18.216Z,-1.09
2018-12-15T03:08:23.834Z,-1.11
2018-12-15T03:11:30.120Z,-1.14
2018-12-15T03:14:36.036Z,-1.09
2018-12-15T03:17:48.774Z,-1.12
2018-12-15T03:21:02.883Z,-1.21
2018-12-15T03:24:09.054Z,-1.10
2018-12-15T03:27:14.951Z,-1.03
2018-12-15T03:30:20.883Z,-1.19
2018-12-15T03:33:26.964Z,-1.15
2018-12-15T03:36:32.604Z,-1.20
2018-12-15T03:39:38.335Z,-1.21
2018-12-15T03:42:43.977Z,-1.19
2018-12-15T03:45:50.622Z,-1.13
2018-12-15T03:48:56.244Z,-1.22
2018-12-15T03:52:02.130Z,-1.13
2018-12-15T03:55:07.868Z,-1.12
2018-12-15T03:58:13.772Z,-1.17
2018-12-15T04:01:19.551Z,-1.23
2018-12-15T04:04:25.162Z,-1.19
2018-12-15T04:07:31.358Z,-1.23
2018-12-15T04:10:37.277Z,-1.26
2018-12-15T04:13:43.180Z,-1.18
2018-12-15T04:16:48.831Z,-1.35
2018-12-15T04:19:54.752Z,-1.33
2018-12-15T04:23:01.067Z,-1.24
2018-12-15T04:26:06.966Z,-1.20
2018-12-15T04:29:13.514Z,-1.37
2018-12-15T04:32:19.431Z,-1.29
2018-12-15T04:35:25.315Z,-1.40
2018-12-15T04:38:31.235Z,-1.29
2018-12-15T04:41:36.833Z,-1.35
2018-12-15T04:44:42.559Z,-1.34
2018-12-15T04:47:48.484Z,-1.36
2018-12-15T04:50:54.116Z,-1.56
2018-12-15T04:53:59.712Z,-1.33
2018-12-15T04:57:05.608Z,-1.24
2018-12-15T05:00:11.638Z,-1.42
2018-12-15T05:03:17.554Z,-1.34
2018-12-15T05:06:26.197Z,-1.27
2018-12-15T05:09:32.429Z,-1.32
2018-12-15T05:12:38.028Z,-1.38
2018-12-15T05:15:43.675Z,-1.35
2018-12-15T05:18:49.589Z,-1.30
2018-12-15T05:21:55.219Z,-1.59
2018-12-15T05:25:01.081Z,-1.37
2018-12-15T05:28:06.785Z,-1.35
2018-12-15T05:31:12.419Z,-1.36
2018-12-15T05:34:20.248Z,-1.34
2018-12-15T05:37:26.042Z,-1.48
2018-12-15T05:40:32.501Z,-1.39
2018-12-15T05:43:38.102Z,-1.38
2018-12-15T05:46:43.801Z,-1.39
2018-12-15T05:49:49.741Z,-1.41
2018-12-15T05:52:55.359Z,-1.27
2018-12-15T05:56:00.970Z,-1.40
2018-12-15T05:59:06.879Z,-1.50
2018-12-15T06:02:14.965Z,-1.61
2018-12-15T06:05:21.421Z,-1.45
2018-12-15T06:08:27.322Z,-1.52
2018-12-15T06:11:33.660Z,-1.47
2018-12-15T06:14:39.304Z,-1.32
2018-12-15T06:17:44.929Z,-1.56
2018-12-15T06:20:50.860Z,-1.46
2018-12-15T06:23:56.500Z,-1.53
2018-12-15T06:27:02.133Z,-1.62
2018-12-15T06:30:09.311Z,-1.29
2018-12-15T06:33:15.308Z,-1.65
2018-12-15T06:36:21.291Z,-1.57
2018-12-15T06:39:26.913Z,-1.45
2018-12-15T06:42:33.131Z,-1.86
2018-12-15T06:45:40.125Z,-1.85
2018-12-15T06:48:45.786Z,-1.63
2018-12-15T06:51:51.667Z,-1.67
2018-12-15T06:54:57.516Z,-1.83
2018-12-15T06:58:03.090Z,-1.74
2018-12-15T07:01:08.712Z,-1.51
2018-12-15T07:04:14.668Z,-1.58
2018-12-15T07:07:20.609Z,-1.56
2018-12-15T07:10:26.468Z,-1.56
2018-12-15T07:13:32.732Z,-1.51
2018-12-15T07:16:38.407Z,-1.76
2018-12-15T07:19:44.023Z,-1.76
2018-12-15T07:22:49.617Z,-1.68
2018-12-15T07:25:55.991Z,-1.68
2018-12-15T07:29:02.037Z,-1.73
2018-12-15T07:32:07.954Z,-1.67
2018-12-15T07:35:13.584Z,-1.58
2018-12-15T07:38:19.418Z,-1.37
2018-12-15T07:41:25.621Z,-1.71
2018-12-15T07:44:32.046Z,-1.52
2018-12-15T07:47:37.984Z,-1.65
2018-12-15T07:50:43.877Z,-1.61
2018-12-15T07:53:49.515Z,-1.74
2018-12-15T07:56:55.426Z,-1.60
2018-12-15T08:00:01.113Z,-1.66
2018-12-15T08:03:07.980Z,-1.74
2018-12-15T08:06:13.589Z,-1.76
2018-12-15T08:09:19.246Z,-1.78
2018-12-15T08:12:30.241Z,-1.97
2018-12-15T08:15:36.528Z,-1.99
2018-12-15T08:18:42.327Z,-2.11
2018-12-15T08:21:48.149Z,-2.03
2018-12-15T08:24:53.837Z,-1.99
2018-12-15T08:27:59.474Z,-1.45
2018-12-15T08:31:05.111Z,-1.54
2018-12-15T08:34:10.869Z,-1.35
2018-12-15T08:37:17.139Z,-1.62
2018-12-15T08:40:23.647Z,-1.79
2018-12-15T08:43:29.784Z,-1.54
2018-12-15T08:46:35.919Z,-1.41
2018-12-15T08:49:42.260Z,-1.86
2018-12-15T08:52:48.328Z,-1.33
2018-12-15T08:55:54.479Z,-1.03
2018-12-15T08:59:00.458Z,-1.27
2018-12-15T09:02:06.856Z,-1.32
2018-12-15T09:05:12.860Z,-0.84
2018-12-15T09:08:18.949Z,-0.94
2018-12-15T09:11:25.288Z,-1.38
2018-12-15T09:14:30.899Z,-0.77
2018-12-15T09:17:37.246Z,-1.01
2018-12-15T09:20:43.136Z,-1.08
2018-12-15T09:23:49.078Z,-0.63
2018-12-15T09:26:54.805Z,-1.28
2018-12-15T09:30:00.460Z,-0.76
2018-12-15T09:33:08.229Z,-0.69
2018-12-15T09:36:13.986Z,-0.66
2018-12-15T09:39:20.626Z,-0.56
2018-12-15T09:42:26.594Z,-0.99
2018-12-15T09:45:32.753Z,-0.83
2018-12-15T09:48:38.855Z,-0.84
2018-12-15T09:51:44.971Z,-0.72
2018-12-15T09:54:50.613Z,-0.71
2018-12-15T09:57:56.241Z,-0.84
2018-12-15T10:01:02.193Z,-0.65
2018-12-15T10:04:08.376Z,-0.66
2018-12-15T10:07:14.280Z,-0.93
2018-12-15T10:10:20.717Z,-0.95
2018-12-15T10:13:26.765Z,-0.87
2018-12-15T10:16:32.563Z,-0.57
2018-12-15T10:19:38.739Z,-0.43
2018-12-15T10:22:44.624Z,-0.40
2018-12-15T10:25:50.542Z,-0.68
2018-12-15T10:28:57.415Z,-0.99
2018-12-15T10:32:08.318Z,-1.21
2018-12-15T10:35:14.118Z,-0.79
2018-12-15T10:38:20.529Z,-0.54
2018-12-15T10:41:26.595Z,-0.42
2018-12-15T10:44:34.190Z,-1.06
2018-12-15T10:47:39.856Z,-0.80
2018-12-15T10:50:47.589Z,-0.70
2018-12-15T10:53:54.743Z,-0.62
2018-12-15T10:57:00.841Z,-0.21
2018-12-15T11:00:15.671Z,-0.89
2018-12-15T11:03:22.084Z,-1.03
2018-12-15T11:06:29.694Z,-1.19
2018-12-15T11:09:35.776Z,-0.76
2018-12-15T11:12:42.416Z,-0.48
2018-12-15T11:15:50.097Z,-1.09
2018-12-15T11:18:57.040Z,-0.57
2018-12-15T11:22:04.380Z,-0.78
2018-12-15T11:25:10.932Z,-1.14
2018-12-15T11:28:18.714Z,-0.70
2018-12-15T11:31:25.449Z,-1.18
2018-12-15T11:34:32.850Z,-0.75
2018-12-15T11:37:39.585Z,-0.94
2018-12-15T11:40:47.533Z,-1.19
2018-12-15T11:43:53.694Z,-0.76
2018-12-15T11:47:00.487Z,-1.27
2018-12-15T11:50:07.483Z,-1.06
2018-12-15T11:53:15.215Z,-0.93
2018-12-15T11:56:25.143Z,-0.80
2018-12-15T11:59:34.886Z,-0.95
2018-12-15T12:02:41.903Z,-0.88
2018-12-15T12:05:48.886Z,-0.96
2018-12-15T12:08:55.675Z,-0.92
2018-12-15T12:12:03.986Z,-0.82
2018-12-15T12:15:11.461Z,-0.85
2018-12-15T12:18:17.667Z,-0.90
2018-12-15T12:21:25.169Z,-0.97
2018-12-15T12:24:32.582Z,-0.87
2018-12-15T12:27:41.656Z,-0.96
2018-12-15T12:30:50.247Z,-0.89
2018-12-15T12:33:56.131Z,-0.66
2018-12-15T12:37:03.041Z,-0.99
2018-12-15T12:40:10.589Z,-1.05
2018-12-15T12:43:16.738Z,-1.04
2018-12-15T12:46:23.272Z,-1.07
2018-12-15T12:49:32.047Z,-1.20
2018-12-15T12:52:38.883Z,-0.95
2018-12-15T12:55:45.700Z,-0.75
2018-12-15T12:58:52.233Z,-0.94
2018-12-15T13:02:00.372Z,-0.75
2018-12-15T13:05:08.114Z,-0.63
2018-12-15T13:08:13.872Z,-0.37
2018-12-15T13:11:21.381Z,0.04
2018-12-15T13:14:28.432Z,-0.01
2018-12-15T13:17:37.131Z,-0.54
2018-12-15T13:20:43.419Z,-0.05
2018-12-15T13:23:49.717Z,-0.78
2018-12-15T13:26:59.152Z,-0.84
2018-12-15T13:30:04.234Z,-0.67
2018-12-15T13:33:27.126Z,-0.60
2018-12-15T13:36:33.786Z,-0.49
2018-12-15T13:39:39.673Z,0.28
2018-12-15T13:42:46.443Z,0.46
2018-12-15T13:45:52.445Z,-0.36
2018-12-15T13:48:58.184Z,-0.58
2018-12-15T13:52:03.822Z,-0.56
2018-12-15T13:55:10.739Z,-0.72
2018-12-15T13:58:18.029Z,-0.39
2018-12-15T14:01:24.029Z,-0.49
2018-12-15T14:04:29.805Z,-0.37
2018-12-15T14:07:35.535Z,-0.79
2018-12-15T14:10:41.272Z,-0.84
2018-12-15T14:13:47.413Z,-0.79
2018-12-15T14:21:05.023Z,-0.88
2018-12-15T14:24:26.480Z,-1.00
2018-12-15T14:27:39.803Z,-1.07
2018-12-15T14:30:46.326Z,-0.82
2018-12-15T14:33:51.974Z,-0.89
2018-12-15T14:36:58.692Z,-0.92
2018-12-15T14:40:05.045Z,-0.97
2018-12-15T14:43:11.079Z,-0.95
2018-12-15T14:46:16.737Z,-0.78
2018-12-15T14:49:22.628Z,-0.58
2018-12-15T14:52:29.932Z,-0.71
2018-12-15T14:55:36.171Z,-0.93
2018-12-15T14:58:42.089Z,-1.07
2018-12-15T15:01:47.988Z,-1.31
2018-12-15T15:04:53.972Z,-0.87
2018-12-15T15:07:59.853Z,-1.22
2018-12-15T15:11:05.761Z,-1.24
2018-12-15T15:14:11.649Z,-1.07
2018-12-15T15:17:17.797Z,-1.08
2018-12-15T15:20:29.668Z,-1.07
2018-12-15T15:23:31.764Z,-0.94
2018-12-15T15:26:37.431Z,-1.26
2018-12-15T15:29:45.513Z,-1.06
2018-12-15T15:32:51.283Z,-0.97
2018-12-15T15:35:57.087Z,-1.30
2018-12-15T15:39:03.783Z,-1.16
2018-12-15T15:42:11.227Z,-1.47
2018-12-15T15:45:17.079Z,-1.14
2018-12-15T15:48:24.298Z,-1.00
2018-12-15T15:52:33.790Z,-1.11
2018-12-15T15:55:42.578Z,-1.22
2018-12-15T15:58:48.697Z,-1.17
2018-12-15T16:01:58.421Z,-1.33
2018-12-15T16:05:04.987Z,-1.19
2018-12-15T16:08:11.447Z,-1.31
2018-12-15T16:11:17.400Z,-1.31
2018-12-15T16:14:23.426Z,-1.23
2018-12-15T16:17:29.037Z,-1.42
2018-12-15T16:20:35.199Z,-1.46
2018-12-15T16:23:41.449Z,-1.25
2018-12-15T16:26:47.995Z,-1.15
2018-12-15T16:29:54.293Z,-1.14
2018-12-15T16:33:00.525Z,-1.41
2018-12-15T16:36:06.896Z,-1.23
2018-12-15T16:39:12.882Z,-1.33
2018-12-15T16:42:18.771Z,-1.19
2018-12-15T16:45:24.684Z,-1.18
2018-12-15T16:48:30.592Z,-1.33
2018-12-15T16:51:36.350Z,-1.32
2018-12-15T16:54:42.453Z,-1.22
2018-12-15T16:57:48.398Z,-1.24
2018-12-15T17:00:54.890Z,-1.50
2018-12-15T17:04:00.733Z,-1.22
2018-12-15T17:07:07.062Z,-1.45
2018-12-15T17:10:12.704Z,-1.39
2018-12-15T17:13:19.672Z,-1.51
2018-12-15T17:16:25.918Z,-1.58
2018-12-15T17:21:17.589Z,-1.44
2018-12-15T17:24:23.228Z,-1.44
2018-12-15T17:27:32.335Z,-1.28
2018-12-15T17:30:38.751Z,-1.32
2018-12-15T17:33:46.593Z,-1.78
2018-12-15T17:36:53.069Z,-1.20
2018-12-15T17:39:58.838Z,-1.39
2018-12-15T17:43:05.323Z,-1.42
2018-12-15T17:46:11.222Z,-1.16
2018-12-15T17:49:17.589Z,-1.17
2018-12-15T17:52:23.607Z,-1.17
2018-12-15T17:55:29.600Z,-1.30
2018-12-15T17:58:35.493Z,-1.17
2018-12-15T18:01:44.757Z,-1.34
2018-12-15T18:04:50.661Z,-1.37
2018-12-15T18:07:59.822Z,-1.51
2018-12-15T18:11:07.624Z,-1.40
2018-12-15T18:14:14.850Z,-1.43
2018-12-15T18:17:22.303Z,-1.58
2018-12-15T18:20:29.551Z,-1.57
2018-12-15T18:23:36.817Z,-1.42
2018-12-15T18:26:45.168Z,-1.49
2018-12-15T18:29:52.560Z,-1.50
2018-12-15T18:33:01.377Z,-1.68
2018-12-15T18:36:08.330Z,-1.66
2018-12-15T18:39:15.722Z,-1.60
2018-12-15T18:42:22.995Z,-1.65
2018-12-15T18:47:26.885Z,-1.48
2018-12-15T18:50:35.175Z,-1.31
2018-12-15T18:53:42.476Z,-1.56
2018-12-15T18:56:50.114Z,-1.76
2018-12-15T18:59:56.225Z,-1.63
2018-12-15T19:03:02.317Z,-1.46
2018-12-15T19:06:08.520Z,-1.31
2018-12-15T19:09:14.439Z,-1.26
2018-12-15T19:12:22.379Z,-1.25
2018-12-15T19:15:28.339Z,-1.23
2018-12-15T19:18:34.091Z,-1.29
2018-12-15T19:21:40.229Z,-1.50
2018-12-15T19:24:46.270Z,-1.53
2018-12-15T19:27:52.301Z,-1.74
2018-12-15T19:30:57.962Z,-1.77
2018-12-15T19:34:04.447Z,-1.45
2018-12-15T19:37:10.356Z,-1.49
2018-12-15T19:40:15.987Z,-1.56
2018-12-15T19:43:21.828Z,-1.39
2018-12-15T19:46:27.440Z,-1.32
2018-12-15T19:49:33.446Z,-1.36
2018-12-15T19:52:39.121Z,-1.68
2018-12-15T19:55:44.855Z,-1.59
2018-12-15T19:58:50.818Z,-1.63
2018-12-15T20:01:56.811Z,-1.45
2018-12-15T20:05:02.689Z,-1.51
2018-12-15T20:08:08.584Z,-1.46
2018-12-15T20:11:15.785Z,-1.37
2018-12-15T20:14:21.768Z,-1.41
2018-12-15T20:17:28.093Z,-1.95
2018-12-15T20:20:33.715Z,-1.67
2018-12-15T20:23:39.329Z,-1.72
2018-12-15T20:26:45.384Z,-1.53
2018-12-15T20:29:50.995Z,-1.47
2018-12-15T20:32:56.720Z,-1.37
2018-12-15T20:36:04.383Z,-1.50
2018-12-15T20:39:10.359Z,-1.48
2018-12-15T20:42:16.284Z,-1.68
2018-12-15T20:45:22.717Z,-1.80
2018-12-15T20:48:28.343Z,-1.61
2018-12-15T20:51:33.963Z,-1.50
2018-12-15T20:54:39.741Z,-1.62
2018-12-15T20:57:45.954Z,-1.66
2018-12-15T21:00:51.960Z,-1.67
2018-12-15T21:03:57.891Z,-1.77
2018-12-15T21:07:04.274Z,-1.66
2018-12-15T21:10:10.600Z,-1.63
2018-12-15T21:13:16.974Z,-1.62
2018-12-15T21:16:23.199Z,-1.47
2018-12-15T21:19:29.210Z,-1.72
2018-12-15T21:22:35.143Z,-1.69
2018-12-15T21:25:41.165Z,-1.74
2018-12-15T21:28:46.856Z,-1.77
2018-12-15T21:31:56.780Z,-1.54
2018-12-15T21:35:00.486Z,-1.64
2018-12-15T21:38:07.290Z,-1.77
2018-12-15T21:41:14.585Z,-1.87
2018-12-15T21:44:20.211Z,-1.60
2018-12-15T21:47:26.107Z,-1.70
2018-12-15T21:50:32.027Z,-2.16
2018-12-15T21:53:37.673Z,-2.15
2018-12-15T21:56:43.366Z,-2.31
2018-12-15T21:59:49.090Z,-2.17
2018-12-15T22:02:54.701Z,-1.76
2018-12-15T22:06:00.334Z,-2.31
2018-12-15T22:09:08.488Z,-2.13
2018-12-15T22:12:14.848Z,-1.87
2018-12-15T22:15:20.504Z,-1.88
2018-12-15T22:18:26.448Z,-2.12
2018-12-15T22:21:32.237Z,-2.15
2018-12-15T22:24:37.868Z,-2.08
2018-12-15T22:27:43.473Z,-2.06
2018-12-15T22:30:50.333Z,-2.16
2018-12-15T22:33:56.069Z,-1.98
2018-12-15T22:37:01.708Z,-1.66
2018-12-15T22:40:08.305Z,-1.86
2018-12-15T22:43:14.092Z,-1.93
2018-12-15T22:46:20.020Z,-2.11
2018-12-15T22:49:25.678Z,-2.16
2018-12-15T22:52:31.301Z,-2.13
2018-12-15T22:55:37.216Z,-2.14
2018-12-15T22:58:42.873Z,-2.01
2018-12-15T23:01:49.120Z,-2.06
2018-12-15T23:04:55.636Z,-2.11
2018-12-15T23:08:01.716Z,-2.00
2018-12-15T23:11:07.609Z,-2.01
2018-12-15T23:14:13.279Z,-1.91
2018-12-15T23:17:19.185Z,-2.22
2018-12-15T23:20:24.857Z,-2.01
2018-12-15T23:23:30.476Z,-2.03
2018-12-15T23:26:37.522Z,-2.18
2018-12-15T23:29:43.098Z,-2.10
2018-12-15T23:32:49.009Z,-2.00
2018-12-15T23:35:54.610Z,-2.01
2018-12-15T23:39:00.253Z,-2.08
2018-12-15T23:42:06.595Z,-2.06
2018-12-15T23:45:12.903Z,-2.07
2018-12-15T23:48:18.485Z,-1.87
2018-12-15T23:51:24.168Z,-1.83
2018-12-15T23:54:30.081Z,-2.03
2018-12-15T23:57:36.024Z,-2.12
